createdAt,value
2023-02-09T00:01:21.749Z,-4.60
2023-02-09T00:03:48.657Z,-4.60
2023-02-09T00:06:18.308Z,-4.60
2023-02-09T00:08:45.524Z,-4.70
2023-02-09T00:11:46.753Z,-4.80
2023-02-09T00:14:16.470Z,-4.70
2023-02-09T00:16:43.634Z,-4.70
2023-02-09T00:19:11.855Z,-4.90
2023-02-09T00:21:39.346Z,-4.90
2023-02-09T00:24:07.513Z,-4.90
2023-02-09T00:26:34.472Z,-4.90
2023-02-09T00:29:01.350Z,-5.00
2023-02-09T00:31:28.244Z,-5.10
2023-02-09T00:33:55.263Z,-5.10
2023-02-09T00:36:22.167Z,-5.10
2023-02-09T00:38:49.054Z,-5.10
2023-02-09T00:41:16.884Z,-5.10
2023-02-09T00:43:44.236Z,-5.10
2023-02-09T00:46:11.134Z,-5.10
2023-02-09T00:48:38.052Z,-5.10
2023-02-09T00:51:05.369Z,-5.20
2023-02-09T00:53:32.176Z,-5.20
2023-02-09T00:56:00.016Z,-5.50
2023-02-09T00:58:26.933Z,-5.40
2023-02-09T01:00:53.853Z,-5.40
2023-02-09T01:03:20.856Z,-5.40
2023-02-09T01:05:47.650Z,-5.40
2023-02-09T01:08:14.474Z,-5.50
2023-02-09T01:10:41.403Z,-5.60
2023-02-09T01:13:08.388Z,-5.60
2023-02-09T01:15:35.506Z,-5.60
2023-02-09T01:18:02.462Z,-5.80
2023-02-09T01:20:29.435Z,-5.50
2023-02-09T01:22:56.258Z,-5.70
2023-02-09T01:25:23.505Z,-4.90
2023-02-09T01:27:50.497Z,-5.70
2023-02-09T01:30:17.548Z,-5.60
2023-02-09T01:32:44.815Z,-5.70
2023-02-09T01:35:11.756Z,-5.70
2023-02-09T01:37:38.903Z,-5.60
2023-02-09T01:40:06.738Z,-5.70
2023-02-09T01:42:33.978Z,-5.80
2023-02-09T01:45:28.653Z,-5.80
2023-02-09T01:48:02.127Z,-5.80
2023-02-09T01:50:33.589Z,-6.00
2023-02-09T01:53:01.174Z,-6.00
2023-02-09T01:55:32.442Z,-5.90
2023-02-09T01:58:09.198Z,-6.00
2023-02-09T02:00:36.024Z,-6.00
2023-02-09T02:03:07.493Z,-5.90
2023-02-09T02:05:37.125Z,-6.00
2023-02-09T02:08:19.114Z,-6.00
2023-02-09T02:10:46.312Z,-5.90
2023-02-09T02:13:13.509Z,-5.90
2023-02-09T02:15:55.586Z,-6.00
2023-02-09T02:18:40.408Z,-6.00
2023-02-09T02:21:10.301Z,-6.10
2023-02-09T02:24:12.286Z,-6.00
2023-02-09T02:26:44.703Z,-5.90
2023-02-09T02:29:33.421Z,-6.30
2023-02-09T02:32:18.472Z,-6.10
2023-02-09T02:34:58.881Z,-6.10
2023-02-09T02:37:43.961Z,-6.20
2023-02-09T02:40:22.747Z,-6.30
2023-02-09T02:42:58.114Z,-6.20
2023-02-09T02:45:29.205Z,-6.10
2023-02-09T02:48:41.725Z,-6.10
2023-02-09T02:51:13.228Z,-6.30
2023-02-09T02:53:45.199Z,-6.10
2023-02-09T02:56:20.161Z,-6.10
2023-02-09T02:58:49.315Z,-6.30
2023-02-09T03:01:21.327Z,-6.30
2023-02-09T03:03:50.680Z,-6.20
2023-02-09T03:06:18.578Z,-6.20
2023-02-09T03:08:49.245Z,-6.40
2023-02-09T03:11:18.376Z,-6.30
2023-02-09T03:13:51.365Z,-6.40
2023-02-09T03:16:21.524Z,-6.50
2023-02-09T03:18:57.466Z,-6.60
2023-02-09T03:21:27.047Z,-6.50
2023-02-09T03:24:05.174Z,-6.50
2023-02-09T03:26:47.837Z,-6.70
2023-02-09T03:29:16.970Z,-6.50
2023-02-09T03:31:44.968Z,-6.50
2023-02-09T03:34:12.036Z,-6.50
2023-02-09T03:36:40.096Z,-6.80
2023-02-09T03:39:06.981Z,-6.60
2023-02-09T03:41:34.341Z,-6.50
2023-02-09T03:44:19.618Z,-6.70
2023-02-09T03:46:46.525Z,-6.70
2023-02-09T03:49:16.462Z,-6.70
2023-02-09T03:51:43.325Z,-6.50
2023-02-09T03:54:10.296Z,-6.40
2023-02-09T03:56:40.008Z,-6.30
2023-02-09T03:59:06.869Z,-6.30
2023-02-09T04:01:34.304Z,-6.40
2023-02-09T04:04:04.807Z,-6.40
2023-02-09T04:06:33.328Z,-6.40
2023-02-09T04:09:00.423Z,-6.40
2023-02-09T04:11:27.321Z,-3.60
2023-02-09T04:13:54.210Z,-6.30
2023-02-09T04:16:21.460Z,-6.30
2023-02-09T04:18:48.379Z,-6.40
2023-02-09T04:21:15.336Z,-6.40
2023-02-09T04:23:42.469Z,-6.50
2023-02-09T04:26:09.642Z,-6.50
2023-02-09T04:28:36.491Z,-6.30
2023-02-09T04:31:03.507Z,-6.30
2023-02-09T04:33:30.663Z,-6.50
2023-02-09T04:35:57.857Z,-6.40
2023-02-09T04:38:24.860Z,-6.20
2023-02-09T04:40:53.225Z,-6.30
2023-02-09T04:43:21.072Z,-6.30
2023-02-09T04:45:48.188Z,-6.30
2023-02-09T04:48:18.100Z,-6.30
2023-02-09T04:50:45.276Z,-6.30
2023-02-09T04:53:13.095Z,-6.20
2023-02-09T04:55:41.142Z,-6.10
2023-02-09T04:58:28.196Z,-6.10
2023-02-09T05:00:55.999Z,-6.20
2023-02-09T05:03:26.032Z,-6.00
2023-02-09T05:06:02.592Z,-5.90
2023-02-09T05:08:29.681Z,-6.10
2023-02-09T05:10:57.130Z,-6.00
2023-02-09T05:13:25.441Z,-6.10
2023-02-09T05:15:52.958Z,-6.20
2023-02-09T05:18:20.288Z,-6.20
2023-02-09T05:20:48.140Z,-6.30
2023-02-09T05:23:15.477Z,-6.20
2023-02-09T05:25:42.605Z,-6.20
2023-02-09T05:28:09.707Z,-5.90
2023-02-09T05:30:37.619Z,-5.80
2023-02-09T05:33:04.719Z,-5.80
2023-02-09T05:35:31.745Z,-6.00
2023-02-09T05:37:58.583Z,-6.10
2023-02-09T05:40:25.424Z,-6.50
2023-02-09T05:42:52.338Z,-6.60
2023-02-09T05:45:19.341Z,-6.50
2023-02-09T05:47:46.154Z,-6.30
2023-02-09T05:50:13.047Z,-6.40
2023-02-09T05:52:39.844Z,-6.20
2023-02-09T05:55:07.070Z,-6.00
2023-02-09T05:57:34.412Z,-5.70
2023-02-09T06:00:01.278Z,-5.60
2023-02-09T06:02:28.167Z,-5.70
2023-02-09T06:04:55.052Z,-5.60
2023-02-09T06:07:21.894Z,-5.70
2023-02-09T06:09:48.743Z,-5.80
2023-02-09T06:12:15.580Z,-5.90
2023-02-09T06:14:42.432Z,-6.10
2023-02-09T06:17:10.742Z,-6.40
2023-02-09T06:19:37.774Z,-6.70
2023-02-09T06:22:04.689Z,-6.60
2023-02-09T06:24:31.494Z,-6.60
2023-02-09T06:26:58.369Z,-7.40
2023-02-09T06:29:25.280Z,-6.10
2023-02-09T06:31:52.819Z,-6.10
2023-02-09T06:34:19.749Z,-5.80
2023-02-09T06:36:46.551Z,-5.70
2023-02-09T06:39:13.347Z,-5.90
2023-02-09T06:41:40.503Z,-5.60
2023-02-09T06:44:07.320Z,-4.90
2023-02-09T06:46:34.260Z,-4.50
2023-02-09T06:49:01.184Z,-4.10
2023-02-09T06:51:28.207Z,-4.10
2023-02-09T06:53:55.079Z,-4.80
2023-02-09T06:56:22.305Z,-4.80
2023-02-09T06:58:49.126Z,-5.10
2023-02-09T07:01:16.176Z,-4.80
2023-02-09T07:03:43.796Z,-4.00
2023-02-09T07:06:16.814Z,-3.10
2023-02-09T07:08:44.491Z,-2.60
2023-02-09T07:11:14.155Z,-2.60
2023-02-09T07:13:41.169Z,-3.00
2023-02-09T07:16:10.253Z,-3.10
2023-02-09T07:18:37.653Z,-3.00
2023-02-09T07:21:08.658Z,-2.50
2023-02-09T07:23:36.143Z,-2.00
2023-02-09T07:26:05.165Z,-1.70
2023-02-09T07:28:32.853Z,-1.70
2023-02-09T07:31:08.219Z,-1.50
2023-02-09T07:33:36.474Z,-1.60
2023-02-09T07:36:05.265Z,-2.20
2023-02-09T07:38:32.358Z,-1.50
2023-02-09T07:41:00.802Z,-1.20
2023-02-09T07:43:27.672Z,-1.10
2023-02-09T07:46:03.512Z,-0.80
2023-02-09T07:48:31.478Z,0.80
2023-02-09T07:50:58.757Z,0.90
2023-02-09T07:53:25.783Z,0.50
2023-02-09T07:55:52.995Z,0.60
2023-02-09T07:58:20.014Z,0.90
2023-02-09T08:00:48.472Z,1.10
2023-02-09T08:03:17.522Z,0.30
2023-02-09T08:06:08.934Z,0.30
2023-02-09T08:08:35.866Z,1.10
2023-02-09T08:11:04.318Z,1.30
2023-02-09T08:13:38.077Z,0.90
2023-02-09T08:16:08.006Z,1.50
2023-02-09T08:18:43.151Z,0.20
2023-02-09T08:21:13.952Z,0.30
2023-02-09T08:23:42.388Z,-0.70
2023-02-09T08:26:11.854Z,0.90
2023-02-09T08:28:44.887Z,2.40
2023-02-09T08:31:14.249Z,2.70
2023-02-09T08:33:41.885Z,3.10
2023-02-09T08:36:11.852Z,3.30
2023-02-09T08:38:38.776Z,3.80
2023-02-09T08:41:07.351Z,4.10
2023-02-09T08:43:34.991Z,4.30
2023-02-09T08:46:06.863Z,4.50
2023-02-09T08:48:35.903Z,4.30
2023-02-09T08:51:03.478Z,4.20
2023-02-09T08:53:30.398Z,3.10
2023-02-09T08:55:57.581Z,3.70
2023-02-09T08:58:25.651Z,2.60
2023-02-09T09:01:00.528Z,3.90
2023-02-09T09:03:31.386Z,5.00
2023-02-09T09:06:00.088Z,4.90
2023-02-09T09:10:54.500Z,5.10
2023-02-09T09:13:21.720Z,4.60
2023-02-09T09:15:49.478Z,4.50
2023-02-09T09:18:16.901Z,5.00
2023-02-09T09:20:43.728Z,4.70
2023-02-09T09:23:11.601Z,3.00
2023-02-09T09:25:40.045Z,3.50
2023-02-09T09:28:07.474Z,4.10
2023-02-09T09:30:34.326Z,3.90
2023-02-09T09:33:01.385Z,4.80
2023-02-09T09:35:28.543Z,3.30
2023-02-09T09:37:58.782Z,3.40
2023-02-09T09:40:29.740Z,3.40
2023-02-09T09:43:00.896Z,2.80
2023-02-09T09:45:30.307Z,2.50
2023-02-09T09:47:57.528Z,2.80
2023-02-09T09:50:41.390Z,2.90
2023-02-09T09:53:21.062Z,2.50
2023-02-09T09:55:49.700Z,4.00
2023-02-09T09:58:19.125Z,3.10
2023-02-09T10:00:46.343Z,4.30
2023-02-09T10:03:18.423Z,3.60
2023-02-09T10:05:49.535Z,2.80
2023-02-09T10:08:25.669Z,3.00
2023-02-09T10:11:05.216Z,3.10
2023-02-09T10:13:49.349Z,4.70
2023-02-09T10:16:30.563Z,5.80
2023-02-09T10:19:21.142Z,4.70
2023-02-09T10:21:51.796Z,5.90
2023-02-09T10:24:30.578Z,5.10
2023-02-09T10:27:23.729Z,5.10
2023-02-09T10:29:50.799Z,4.50
2023-02-09T10:32:20.970Z,5.10
2023-02-09T10:34:54.364Z,3.80
2023-02-09T10:37:36.002Z,4.60
2023-02-09T10:40:19.109Z,5.50
2023-02-09T10:43:02.970Z,5.50
2023-02-09T10:45:33.607Z,4.60
2023-02-09T10:48:08.231Z,5.30
2023-02-09T10:50:47.705Z,6.60
2023-02-09T10:53:39.190Z,7.20
2023-02-09T10:56:22.664Z,7.40
2023-02-09T10:59:13.817Z,6.30
2023-02-09T11:01:43.955Z,6.90
2023-02-09T11:04:16.541Z,7.10
2023-02-09T11:07:14.953Z,7.80
2023-02-09T11:09:51.345Z,6.00
2023-02-09T11:12:22.782Z,5.30
2023-02-09T11:14:49.815Z,5.20
2023-02-09T11:17:40.169Z,5.60
2023-02-09T11:20:21.986Z,7.10
2023-02-09T11:23:12.455Z,6.80
2023-02-09T11:25:50.226Z,6.10
2023-02-09T11:28:17.402Z,5.20
2023-02-09T11:31:14.749Z,5.10
2023-02-09T11:34:06.014Z,4.10
2023-02-09T11:36:56.885Z,4.20
2023-02-09T11:39:48.729Z,4.60
2023-02-09T11:42:43.104Z,5.20
2023-02-09T11:45:14.198Z,7.10
2023-02-09T11:48:18.941Z,6.00
2023-02-09T11:51:02.611Z,6.00
2023-02-09T11:53:39.905Z,7.30
2023-02-09T11:56:11.790Z,8.40
2023-02-09T11:58:47.454Z,7.50
2023-02-09T12:01:32.291Z,6.60
2023-02-09T12:04:21.404Z,6.70
2023-02-09T12:06:55.914Z,4.80
2023-02-09T12:09:28.456Z,5.10
2023-02-09T12:11:59.931Z,6.00
2023-02-09T12:14:29.466Z,5.40
2023-02-09T12:17:22.523Z,4.90
2023-02-09T12:20:00.421Z,5.30
2023-02-09T12:22:36.143Z,3.90
2023-02-09T12:25:12.049Z,3.50
2023-02-09T12:27:44.275Z,4.00
2023-02-09T12:30:40.223Z,3.10
2023-02-09T12:33:20.188Z,3.10
2023-02-09T12:36:08.438Z,3.40
2023-02-09T12:39:13.829Z,5.50
2023-02-09T12:41:41.263Z,3.40
2023-02-09T12:44:10.903Z,4.10
2023-02-09T12:46:53.101Z,4.40
2023-02-09T12:49:29.129Z,5.30
2023-02-09T12:52:02.182Z,4.80
2023-02-09T12:54:44.065Z,5.00
2023-02-09T12:57:17.263Z,5.40
2023-02-09T12:59:50.561Z,5.70
2023-02-09T13:02:50.682Z,5.70
2023-02-09T13:05:30.151Z,5.80
2023-02-09T13:08:11.961Z,5.30
2023-02-09T13:10:43.130Z,5.70
2023-02-09T13:13:12.808Z,5.50
2023-02-09T13:15:55.044Z,5.70
2023-02-09T13:18:37.097Z,5.40
2023-02-09T13:21:47.201Z,3.70
2023-02-09T13:24:18.397Z,4.40
2023-02-09T13:26:58.844Z,4.20
2023-02-09T13:29:31.065Z,4.30
2023-02-09T13:32:03.861Z,4.80
2023-02-09T13:34:36.408Z,4.90
2023-02-09T13:37:25.299Z,4.80
2023-02-09T13:40:00.872Z,4.60
2023-02-09T13:42:35.108Z,4.80
2023-02-09T13:45:02.177Z,5.00
2023-02-09T13:47:29.541Z,4.60
2023-02-09T13:50:11.403Z,3.60
2023-02-09T13:52:39.497Z,3.80
2023-02-09T13:55:18.046Z,3.90
2023-02-09T13:57:50.702Z,3.60
2023-02-09T14:00:28.115Z,3.20
2023-02-09T14:03:01.765Z,3.20
2023-02-09T14:05:40.994Z,3.10
2023-02-09T14:08:09.434Z,3.20
2023-02-09T14:10:37.023Z,3.00
2023-02-09T14:13:24.456Z,2.80
2023-02-09T14:16:07.893Z,2.90
2023-02-09T14:18:47.225Z,2.80
2023-02-09T14:21:20.109Z,2.70
2023-02-09T14:23:56.276Z,2.60
2023-02-09T14:26:27.104Z,2.60
2023-02-09T14:29:11.689Z,2.70
2023-02-09T14:31:44.434Z,2.60
2023-02-09T14:34:44.153Z,2.60
2023-02-09T14:37:13.418Z,2.70
2023-02-09T14:40:16.128Z,2.30
2023-02-09T14:43:11.497Z,2.10
2023-02-09T14:45:57.370Z,2.20
2023-02-09T14:48:29.494Z,2.00
2023-02-09T14:50:59.209Z,1.50
2023-02-09T14:53:31.339Z,1.50
2023-02-09T14:55:58.936Z,1.50
2023-02-09T14:58:29.914Z,1.50
2023-02-09T15:01:02.817Z,1.20
2023-02-09T15:03:29.723Z,1.20
2023-02-09T15:06:00.299Z,1.20
2023-02-09T15:08:30.422Z,1.00
2023-02-09T15:11:02.917Z,0.90
2023-02-09T15:13:31.325Z,0.80
2023-02-09T15:15:58.226Z,0.40
2023-02-09T15:18:26.812Z,0.40
2023-02-09T15:20:53.887Z,0.20
2023-02-09T15:23:20.763Z,0.20
2023-02-09T15:25:48.152Z,0.00
2023-02-09T15:28:28.882Z,-0.30
2023-02-09T15:30:56.360Z,-0.30
2023-02-09T15:33:23.470Z,-0.40
2023-02-09T15:35:51.321Z,-0.40
2023-02-09T15:38:18.690Z,-0.50
2023-02-09T15:41:06.761Z,-0.60
2023-02-09T15:43:52.301Z,-0.70
2023-02-09T15:46:22.372Z,-0.80
2023-02-09T15:48:49.375Z,-0.70
2023-02-09T15:51:17.248Z,-0.90
2023-02-09T15:53:45.271Z,-1.00
2023-02-09T15:56:14.060Z,-1.00
2023-02-09T15:58:44.362Z,1.10
2023-02-09T16:01:16.823Z,-1.00
2023-02-09T16:03:44.535Z,-1.10
2023-02-09T16:06:21.887Z,-1.20
2023-02-09T16:08:50.301Z,-1.20
2023-02-09T16:11:27.401Z,-1.20
2023-02-09T16:13:54.916Z,-1.20
2023-02-09T16:16:24.752Z,-1.10
2023-02-09T16:18:51.993Z,-1.10
2023-02-09T16:21:28.927Z,-1.20
2023-02-09T16:24:00.734Z,-1.40
2023-02-09T16:26:29.802Z,-1.40
2023-02-09T16:28:57.165Z,-1.30
2023-02-09T16:31:25.424Z,-1.20
2023-02-09T16:33:52.635Z,-1.20
2023-02-09T16:36:24.520Z,-1.10
2023-02-09T16:38:51.745Z,-1.30
2023-02-09T16:41:37.653Z,-1.30
2023-02-09T16:44:33.881Z,-1.40
2023-02-09T16:47:01.787Z,-1.30
2023-02-09T16:49:33.265Z,-1.30
2023-02-09T16:52:18.834Z,-1.40
2023-02-09T16:54:52.216Z,-1.40
2023-02-09T16:57:23.292Z,-1.40
2023-02-09T16:59:51.571Z,-1.30
2023-02-09T17:02:33.325Z,-1.00
2023-02-09T17:05:02.165Z,-1.40
2023-02-09T17:07:34.252Z,-1.40
2023-02-09T17:10:20.988Z,-1.40
2023-02-09T17:12:48.031Z,-1.50
2023-02-09T17:15:29.503Z,-1.40
2023-02-09T17:18:03.614Z,-1.60
2023-02-09T17:20:36.355Z,-1.60
2023-02-09T17:23:03.979Z,-1.70
2023-02-09T17:25:31.163Z,-1.70
2023-02-09T17:27:58.032Z,-1.60
2023-02-09T17:30:24.999Z,-1.50
2023-02-09T17:33:01.425Z,-1.70
2023-02-09T17:35:58.024Z,-1.60
2023-02-09T17:38:22.767Z,-1.50
2023-02-09T17:40:50.997Z,-3.30
2023-02-09T17:43:18.016Z,-1.60
2023-02-09T17:45:49.373Z,-1.60
2023-02-09T17:48:18.019Z,-1.60
2023-02-09T17:50:46.005Z,-0.50
2023-02-09T17:53:22.545Z,-1.60
2023-02-09T17:55:49.814Z,-1.60
2023-02-09T17:58:17.127Z,-1.60
2023-02-09T18:00:45.337Z,-1.60
2023-02-09T18:03:18.186Z,-1.70
2023-02-09T18:05:49.126Z,-1.80
2023-02-09T18:08:15.975Z,-1.70
2023-02-09T18:10:42.858Z,-1.60
2023-02-09T18:13:16.736Z,-1.70
2023-02-09T18:15:44.193Z,-1.50
2023-02-09T18:18:14.572Z,-1.40
2023-02-09T18:20:42.623Z,-1.50
2023-02-09T18:23:15.021Z,-1.50
2023-02-09T18:25:42.548Z,-1.50
2023-02-09T18:28:09.623Z,-1.40
2023-02-09T18:30:38.718Z,-1.50
2023-02-09T18:33:07.459Z,-1.50
2023-02-09T18:35:35.353Z,-1.40
2023-02-09T18:38:04.390Z,-1.50
2023-02-09T18:40:34.665Z,-1.60
2023-02-09T18:43:02.516Z,-1.70
2023-02-09T18:45:32.893Z,-1.60
2023-02-09T18:48:00.340Z,-1.70
2023-02-09T18:50:30.257Z,-1.70
2023-02-09T18:52:59.408Z,-1.60
2023-02-09T18:55:31.279Z,-1.70
2023-02-09T18:58:06.603Z,-1.70
2023-02-09T19:00:34.204Z,-1.70
2023-02-09T19:03:01.411Z,-1.50
2023-02-09T19:05:30.636Z,-1.70
2023-02-09T19:07:59.593Z,-1.60
2023-02-09T19:10:27.150Z,-1.60
2023-02-09T19:12:54.416Z,-1.70
2023-02-09T19:15:25.754Z,-1.70
2023-02-09T19:17:53.925Z,-1.80
2023-02-09T19:20:23.791Z,-1.80
2023-02-09T19:22:54.331Z,-1.60
2023-02-09T19:25:24.596Z,-1.60
2023-02-09T19:27:52.756Z,-1.80
2023-02-09T19:30:24.923Z,-1.70
2023-02-09T19:32:53.040Z,-1.90
2023-02-09T19:35:23.080Z,-1.90
2023-02-09T19:37:54.524Z,-1.80
2023-02-09T19:40:28.141Z,-1.70
2023-02-09T19:42:56.247Z,-1.70
2023-02-09T19:45:23.819Z,-1.80
2023-02-09T19:47:50.814Z,-1.50
2023-02-09T19:50:18.284Z,-1.70
2023-02-09T19:52:47.565Z,-1.70
2023-02-09T19:55:15.429Z,-1.50
2023-02-09T19:57:42.841Z,-1.60
2023-02-09T20:00:14.840Z,-1.60
2023-02-09T20:02:41.893Z,-1.50
2023-02-09T20:05:09.403Z,-1.50
2023-02-09T20:07:36.315Z,-1.50
2023-02-09T20:10:03.852Z,-1.40
2023-02-09T20:12:31.482Z,-1.50
2023-02-09T20:14:58.434Z,-1.50
2023-02-09T20:17:25.470Z,-1.50
2023-02-09T20:19:52.305Z,-1.00
2023-02-09T20:22:19.408Z,-1.40
2023-02-09T20:24:46.242Z,-1.40
2023-02-09T20:27:13.509Z,-1.50
2023-02-09T20:29:40.383Z,-1.50
2023-02-09T20:32:07.517Z,-1.60
2023-02-09T20:34:34.399Z,-1.50
2023-02-09T20:37:01.276Z,-1.40
2023-02-09T20:39:28.179Z,-1.40
2023-02-09T20:42:15.616Z,-1.40
2023-02-09T20:45:01.598Z,-1.30
2023-02-09T20:47:29.980Z,-1.30
2023-02-09T20:49:59.982Z,-1.30
2023-02-09T20:52:30.766Z,-1.40
2023-02-09T20:54:57.776Z,-1.20
2023-02-09T20:57:29.521Z,-1.30
2023-02-09T21:00:00.498Z,-1.40
2023-02-09T21:02:27.753Z,-1.30
2023-02-09T21:04:56.572Z,-1.20
2023-02-09T21:07:25.662Z,-1.50
2023-02-09T21:09:54.899Z,-1.40
2023-02-09T21:12:22.440Z,-1.60
2023-02-09T21:14:50.847Z,-1.60
2023-02-09T21:17:19.663Z,-1.60
2023-02-09T21:19:46.786Z,-1.70
2023-02-09T21:22:17.115Z,-1.50
2023-02-09T21:24:45.093Z,-1.50
2023-02-09T21:27:13.124Z,-1.60
2023-02-09T21:29:40.460Z,-1.50
2023-02-09T21:32:08.036Z,-1.70
2023-02-09T21:34:35.890Z,-1.80
2023-02-09T21:37:02.832Z,-1.70
2023-02-09T21:39:30.169Z,-1.60
2023-02-09T21:42:15.381Z,-1.80
2023-02-09T21:44:42.384Z,-1.80
2023-02-09T21:47:10.559Z,-1.80
2023-02-09T21:49:37.464Z,-1.90
2023-02-09T21:52:04.433Z,-1.90
2023-02-09T21:54:34.392Z,-1.80
2023-02-09T21:57:02.280Z,-1.90
2023-02-09T21:59:29.879Z,-1.80
2023-02-09T22:01:57.117Z,-1.80
2023-02-09T22:04:24.284Z,-1.90
2023-02-09T22:06:51.278Z,-1.80
2023-02-09T22:09:20.217Z,-2.10
2023-02-09T22:11:47.591Z,-2.10
2023-02-09T22:14:14.470Z,-2.20
2023-02-09T22:16:41.459Z,-2.10
2023-02-09T22:19:08.515Z,-2.10
2023-02-09T22:24:02.624Z,-2.10
2023-02-09T22:26:29.629Z,-2.30
2023-02-09T22:28:56.435Z,-2.20
2023-02-09T22:31:23.329Z,-2.10
2023-02-09T22:33:54.418Z,-2.10
2023-02-09T22:36:23.373Z,-1.90
2023-02-09T22:38:50.926Z,-1.90
2023-02-09T22:41:23.608Z,-2.20
2023-02-09T22:43:58.991Z,-2.20
2023-02-09T22:46:29.478Z,-2.30
2023-02-09T22:48:58.547Z,-2.40
2023-02-09T22:51:28.640Z,-2.40
2023-02-09T22:53:56.467Z,-2.10
2023-02-09T22:56:23.964Z,-2.30
2023-02-09T22:58:53.896Z,-2.20
2023-02-09T23:01:21.444Z,-2.20
2023-02-09T23:03:48.969Z,-2.10
2023-02-09T23:06:24.133Z,-2.10
2023-02-09T23:08:55.871Z,-2.20
2023-02-09T23:11:23.571Z,-2.30
2023-02-09T23:13:57.662Z,-2.30
2023-02-09T23:16:34.260Z,-2.20
2023-02-09T23:19:03.487Z,-2.10
2023-02-09T23:21:36.312Z,-2.10
2023-02-09T23:24:03.796Z,-2.20
2023-02-09T23:26:30.898Z,-2.20
2023-02-09T23:28:59.862Z,-2.30
2023-02-09T23:31:27.379Z,-2.20
2023-02-09T23:33:54.757Z,-2.20
2023-02-09T23:36:25.218Z,-2.10
2023-02-09T23:38:56.922Z,-2.00
2023-02-09T23:41:24.828Z,-2.20
2023-02-09T23:43:52.205Z,-2.30
2023-02-09T23:46:21.874Z,-2.20
2023-02-09T23:48:49.506Z,-2.20
2023-02-09T23:51:21.776Z,-2.30
2023-02-09T23:53:48.881Z,-2.30
2023-02-09T23:56:17.554Z,-2.30
2023-02-09T23:58:46.805Z,-2.30
